Allenville, Missouri
Current Conditions -  °F | °C
As of 3:53 AM on Sunday 21 Dec 2014 (Local Time) from KCGI Reporting Station
Clear Clear  
Wind Chill: 23°   Ceiling: Unl
Heat Index: 28°   Visibility: 8mi
Dew Point: 27°   Wind: 5mph
Humidity: 96%   Direction: 90°E
Pressure: 30.24"   Gusts: NA
Location:  37.1651°N, 89.623°W
Report Text: KCGI 210953Z AUTO 09004KT 8SM CLR M02/M03 A3024 RMK AO2 SLP244 T10221028 TSNO
Loading
Personal Weather Stations






























Interactive Weather Map New forecast layout! Learn more

10-Day Weather Forecast

Advertisements
Track Severe Weather on mobile